createdAt,value
2023-03-06T00:01:26.924Z,4.80
2023-03-06T00:03:53.316Z,4.75
2023-03-06T00:06:19.732Z,4.77
2023-03-06T00:08:46.319Z,4.75
2023-03-06T00:11:12.686Z,4.80
2023-03-06T00:13:39.057Z,4.80
2023-03-06T00:16:05.462Z,4.75
2023-03-06T00:18:31.866Z,4.75
2023-03-06T00:20:58.493Z,4.75
2023-03-06T00:23:24.854Z,4.78
2023-03-06T00:25:51.221Z,4.75
2023-03-06T00:28:17.595Z,4.75
2023-03-06T00:30:43.947Z,4.75
2023-03-06T00:33:10.308Z,4.77
2023-03-06T00:35:36.727Z,4.75
2023-03-06T00:38:03.313Z,4.77
2023-03-06T00:40:29.656Z,4.78
2023-03-06T00:42:56.012Z,4.75
2023-03-06T00:45:22.443Z,4.77
2023-03-06T00:47:48.830Z,4.75
2023-03-06T00:50:15.188Z,4.75
2023-03-06T00:52:41.569Z,4.75
2023-03-06T00:55:08.151Z,4.77
2023-03-06T00:57:34.526Z,4.75
2023-03-06T01:00:00.892Z,4.78
2023-03-06T01:02:27.324Z,4.77
2023-03-06T01:04:53.750Z,4.77
2023-03-06T01:07:20.138Z,4.77
2023-03-06T01:09:46.507Z,4.75
2023-03-06T01:12:13.090Z,4.77
2023-03-06T01:14:39.460Z,4.77
2023-03-06T01:17:05.824Z,4.78
2023-03-06T01:19:32.186Z,4.77
2023-03-06T01:21:58.549Z,4.75
2023-03-06T01:24:24.909Z,4.77
2023-03-06T01:26:51.299Z,4.75
2023-03-06T01:29:17.678Z,4.77
2023-03-06T01:31:44.088Z,4.72
2023-03-06T01:34:10.690Z,4.75
2023-03-06T01:36:37.051Z,4.77
2023-03-06T01:39:03.404Z,4.75
2023-03-06T01:41:29.778Z,4.78
2023-03-06T01:43:56.150Z,4.72
2023-03-06T01:46:22.501Z,4.77
2023-03-06T01:48:49.095Z,4.75
2023-03-06T01:51:15.661Z,4.74
2023-03-06T01:53:42.004Z,4.74
2023-03-06T01:56:08.598Z,4.74
2023-03-06T01:58:34.952Z,4.75
2023-03-06T02:01:01.323Z,4.75
2023-03-06T02:03:27.678Z,4.75
2023-03-06T02:05:54.038Z,4.75
2023-03-06T02:08:20.618Z,4.74
2023-03-06T02:10:46.990Z,4.75
2023-03-06T02:13:13.353Z,4.77
2023-03-06T02:15:39.974Z,4.74
2023-03-06T02:18:06.343Z,4.74
2023-03-06T02:20:32.686Z,4.75
2023-03-06T02:22:59.035Z,4.74
2023-03-06T02:25:25.408Z,4.75
2023-03-06T02:27:51.770Z,4.75
2023-03-06T02:30:18.139Z,4.77
2023-03-06T02:32:44.485Z,4.75
2023-03-06T02:35:10.833Z,4.77
2023-03-06T02:37:37.203Z,4.77
2023-03-06T02:40:03.775Z,4.75
2023-03-06T02:42:30.130Z,4.75
2023-03-06T02:44:56.496Z,4.74
2023-03-06T02:47:22.837Z,4.74
2023-03-06T02:49:49.175Z,4.74
2023-03-06T02:52:15.520Z,4.74
2023-03-06T02:54:41.872Z,4.72
2023-03-06T02:57:08.203Z,4.77
2023-03-06T02:59:34.754Z,4.75
2023-03-06T03:02:01.284Z,4.75
2023-03-06T03:04:27.651Z,4.74
2023-03-06T03:06:54.250Z,4.74
2023-03-06T03:09:20.808Z,4.77
2023-03-06T03:11:47.159Z,4.72
2023-03-06T03:14:13.737Z,4.74
2023-03-06T03:16:40.085Z,4.74
2023-03-06T03:19:06.418Z,4.75
2023-03-06T03:21:32.747Z,4.75
2023-03-06T03:23:59.078Z,4.74
2023-03-06T03:26:25.412Z,4.75
2023-03-06T03:28:51.752Z,4.77
2023-03-06T03:31:18.322Z,4.75
2023-03-06T03:33:44.954Z,4.74
2023-03-06T03:36:11.506Z,4.74
2023-03-06T03:38:37.835Z,4.74
2023-03-06T03:41:04.384Z,4.75
2023-03-06T03:43:30.709Z,4.74
2023-03-06T03:45:57.248Z,4.75
2023-03-06T03:48:23.593Z,4.77
2023-03-06T03:50:49.919Z,4.75
2023-03-06T03:53:16.264Z,4.72
2023-03-06T03:55:42.609Z,4.75
2023-03-06T03:58:08.957Z,4.72
2023-03-06T04:00:35.301Z,4.75
2023-03-06T04:03:01.640Z,4.74
2023-03-06T04:05:27.995Z,4.74
2023-03-06T04:07:54.322Z,4.72
2023-03-06T04:10:20.865Z,4.72
2023-03-06T04:12:47.149Z,4.72
2023-03-06T04:15:13.475Z,4.74
2023-03-06T04:17:39.807Z,4.75
2023-03-06T04:20:06.168Z,4.74
2023-03-06T04:22:32.556Z,4.74
2023-03-06T04:24:58.897Z,4.74
2023-03-06T04:27:25.248Z,4.74
2023-03-06T04:29:51.615Z,4.74
2023-03-06T04:32:20.333Z,4.74
2023-03-06T04:34:47.845Z,4.75
2023-03-06T04:37:14.191Z,4.75
2023-03-06T04:39:41.332Z,4.74
2023-03-06T04:42:07.672Z,4.72
2023-03-06T04:44:34.016Z,4.71
2023-03-06T04:47:00.358Z,4.71
2023-03-06T04:49:26.691Z,4.74
2023-03-06T04:51:53.026Z,4.77
2023-03-06T04:54:19.363Z,4.74
2023-03-06T04:56:45.700Z,4.72
2023-03-06T04:59:12.028Z,4.75
2023-03-06T05:01:38.585Z,4.74
2023-03-06T05:04:04.913Z,4.72
2023-03-06T05:06:31.266Z,4.72
2023-03-06T05:08:57.622Z,4.75
2023-03-06T05:11:24.165Z,4.71
2023-03-06T05:13:50.513Z,4.75
2023-03-06T05:16:16.872Z,4.74
2023-03-06T05:18:43.211Z,4.72
2023-03-06T05:21:09.568Z,4.74
2023-03-06T05:23:35.898Z,4.74
2023-03-06T05:26:02.236Z,4.74
2023-03-06T05:28:28.779Z,4.74
2023-03-06T05:30:55.116Z,4.74
2023-03-06T05:33:21.466Z,4.74
2023-03-06T05:35:47.880Z,4.75
2023-03-06T05:38:14.481Z,4.74
2023-03-06T05:40:40.820Z,4.74
2023-03-06T05:43:07.157Z,4.72
2023-03-06T05:45:33.511Z,4.72
2023-03-06T05:47:59.873Z,4.74
2023-03-06T05:50:26.204Z,4.71
2023-03-06T05:52:52.743Z,4.71
2023-03-06T05:55:19.078Z,4.72
2023-03-06T05:57:45.397Z,4.72
2023-03-06T06:00:11.743Z,4.77
2023-03-06T06:02:38.254Z,4.72
2023-03-06T06:05:04.636Z,4.75
2023-03-06T06:07:30.975Z,4.74
2023-03-06T06:09:57.316Z,4.75
2023-03-06T06:12:23.644Z,4.74
2023-03-06T06:14:49.970Z,4.74
2023-03-06T06:17:16.316Z,4.74
2023-03-06T06:19:42.649Z,4.72
2023-03-06T06:22:08.993Z,4.72
2023-03-06T06:24:35.328Z,4.74
2023-03-06T06:27:03.829Z,4.74
2023-03-06T06:29:30.675Z,4.74
2023-03-06T06:31:57.022Z,4.74
2023-03-06T06:34:23.381Z,4.74
2023-03-06T06:36:52.201Z,4.71
2023-03-06T06:39:19.553Z,4.72
2023-03-06T06:42:02.759Z,4.71
2023-03-06T06:44:35.040Z,4.72
2023-03-06T06:49:47.698Z,4.72
2023-03-06T06:52:14.048Z,4.71
2023-03-06T06:54:40.381Z,4.71
2023-03-06T06:57:08.222Z,4.74
2023-03-06T06:59:34.593Z,4.71
2023-03-06T07:02:00.973Z,4.72
2023-03-06T07:04:28.255Z,4.72
2023-03-06T07:06:54.600Z,4.74
2023-03-06T07:09:20.953Z,4.71
2023-03-06T07:11:47.296Z,4.75
2023-03-06T07:14:15.057Z,4.71
2023-03-06T07:16:41.408Z,4.75
2023-03-06T07:19:07.747Z,4.72
2023-03-06T07:21:34.083Z,4.71
2023-03-06T07:24:00.421Z,4.71
2023-03-06T07:26:26.784Z,4.70
2023-03-06T07:28:53.239Z,4.72
2023-03-06T07:31:19.692Z,4.74
2023-03-06T07:33:46.052Z,4.72
2023-03-06T07:36:13.922Z,4.74
2023-03-06T07:38:41.183Z,4.72
2023-03-06T07:41:08.088Z,4.74
2023-03-06T07:43:34.447Z,4.74
2023-03-06T07:46:00.794Z,4.74
2023-03-06T07:48:27.135Z,4.74
2023-03-06T07:50:53.467Z,4.75
2023-03-06T07:53:19.795Z,4.74
2023-03-06T07:55:46.379Z,4.74
2023-03-06T07:58:13.218Z,4.74
2023-03-06T08:00:39.558Z,4.71
2023-03-06T08:03:05.905Z,4.71
2023-03-06T08:05:33.234Z,4.72
2023-03-06T08:07:59.562Z,4.72
2023-03-06T08:10:27.395Z,4.71
2023-03-06T08:12:53.729Z,4.71
2023-03-06T08:15:20.085Z,4.70
2023-03-06T08:17:46.417Z,4.70
2023-03-06T08:20:12.752Z,4.72
2023-03-06T08:22:39.092Z,4.70
2023-03-06T08:25:05.939Z,4.74
2023-03-06T08:27:32.398Z,4.71
2023-03-06T08:29:58.783Z,4.72
2023-03-06T08:32:25.120Z,4.71
2023-03-06T08:34:51.904Z,4.74
2023-03-06T08:37:18.263Z,4.72
2023-03-06T08:39:44.614Z,4.71
2023-03-06T08:42:10.942Z,4.72
2023-03-06T08:44:37.273Z,4.72
2023-03-06T08:49:53.176Z,4.72
2023-03-06T08:52:19.503Z,4.72
2023-03-06T08:54:45.848Z,4.72
2023-03-06T08:57:12.181Z,4.72
2023-03-06T08:59:39.056Z,4.74
2023-03-06T09:02:05.488Z,4.74
2023-03-06T09:04:31.925Z,4.71
2023-03-06T09:06:58.272Z,4.72
2023-03-06T09:09:24.620Z,4.70
2023-03-06T09:11:50.958Z,4.72
2023-03-06T09:14:17.297Z,4.68
2023-03-06T09:16:43.658Z,4.72
2023-03-06T09:19:10.039Z,4.74
2023-03-06T09:21:36.381Z,4.72
2023-03-06T09:24:02.953Z,4.71
2023-03-06T09:26:43.383Z,4.71
2023-03-06T09:29:11.659Z,4.70
2023-03-06T09:31:38.002Z,4.68
2023-03-06T09:34:05.130Z,4.68
2023-03-06T09:36:31.471Z,4.72
2023-03-06T09:38:57.829Z,4.70
2023-03-06T09:41:24.168Z,4.70
2023-03-06T09:43:50.513Z,4.70
2023-03-06T09:46:16.899Z,4.71
2023-03-06T09:48:43.273Z,4.68
2023-03-06T09:51:09.619Z,4.70
2023-03-06T09:53:35.952Z,4.70
2023-03-06T09:56:03.264Z,4.70
2023-03-06T09:58:29.601Z,4.71
2023-03-06T10:00:55.925Z,4.70
2023-03-06T10:03:22.307Z,4.70
2023-03-06T10:05:48.669Z,4.70
2023-03-06T10:08:15.004Z,4.67
2023-03-06T10:10:41.343Z,4.71
2023-03-06T10:13:07.684Z,4.68
2023-03-06T10:15:34.113Z,4.65
2023-03-06T10:18:01.278Z,4.68
2023-03-06T10:20:28.136Z,4.67
2023-03-06T10:23:00.688Z,4.67
2023-03-06T10:25:30.101Z,4.68
2023-03-06T10:27:56.691Z,4.68
2023-03-06T10:30:23.065Z,4.68
2023-03-06T10:32:50.186Z,4.68
2023-03-06T10:35:16.578Z,4.70
2023-03-06T10:37:42.908Z,4.71
2023-03-06T10:40:09.244Z,4.68
2023-03-06T10:42:35.576Z,4.70
2023-03-06T10:45:02.188Z,4.67
2023-03-06T10:47:28.552Z,4.70
2023-03-06T10:49:54.886Z,4.65
2023-03-06T10:52:21.218Z,4.67
2023-03-06T10:54:47.554Z,4.68
2023-03-06T10:57:13.887Z,4.68
2023-03-06T10:59:40.437Z,4.68
2023-03-06T11:02:06.767Z,4.68
2023-03-06T11:04:33.140Z,4.71
2023-03-06T11:06:59.498Z,4.70
2023-03-06T11:09:25.823Z,4.71
2023-03-06T11:11:52.156Z,4.72
2023-03-06T11:14:18.506Z,4.71
2023-03-06T11:16:44.851Z,4.70
2023-03-06T11:19:11.186Z,4.68
2023-03-06T11:21:37.522Z,4.71
2023-03-06T11:24:03.870Z,4.70
2023-03-06T11:26:30.204Z,4.70
2023-03-06T11:28:56.549Z,4.71
2023-03-06T11:31:22.944Z,4.67
2023-03-06T11:33:49.339Z,4.68
2023-03-06T11:36:15.801Z,4.71
2023-03-06T11:38:42.362Z,4.67
2023-03-06T11:41:08.716Z,4.70
2023-03-06T11:43:35.052Z,4.70
2023-03-06T11:46:01.424Z,4.70
2023-03-06T11:48:27.768Z,4.70
2023-03-06T11:50:54.117Z,4.70
2023-03-06T11:53:20.468Z,4.70
2023-03-06T11:55:46.814Z,4.72
2023-03-06T11:58:13.172Z,4.70
2023-03-06T12:00:39.521Z,4.67
2023-03-06T12:03:05.858Z,4.70
2023-03-06T12:05:32.269Z,4.70
2023-03-06T12:07:58.628Z,4.70
2023-03-06T12:10:24.960Z,4.71
2023-03-06T12:12:51.293Z,4.70
2023-03-06T12:15:17.627Z,4.70
2023-03-06T12:17:43.961Z,4.67
2023-03-06T12:20:10.294Z,4.67
2023-03-06T12:22:36.622Z,4.67
2023-03-06T12:25:02.962Z,4.70
2023-03-06T12:27:29.291Z,4.70
2023-03-06T12:29:55.613Z,4.68
2023-03-06T12:32:21.966Z,4.70
2023-03-06T12:34:48.352Z,4.70
2023-03-06T12:37:14.693Z,4.71
2023-03-06T12:39:41.022Z,4.70
2023-03-06T12:42:11.441Z,4.71
2023-03-06T12:44:44.451Z,4.71
2023-03-06T12:47:10.796Z,4.70
2023-03-06T12:49:37.138Z,4.71
2023-03-06T12:52:03.475Z,4.70
2023-03-06T12:54:29.831Z,4.71
2023-03-06T12:56:56.176Z,4.68
2023-03-06T12:59:22.516Z,4.67
2023-03-06T13:01:49.239Z,4.70
2023-03-06T13:04:15.628Z,4.68
2023-03-06T13:06:49.847Z,4.68
2023-03-06T13:09:17.027Z,4.68
2023-03-06T13:11:43.358Z,4.71
2023-03-06T13:14:09.697Z,4.70
2023-03-06T13:16:36.085Z,4.70
2023-03-06T13:19:02.465Z,4.70
2023-03-06T13:21:28.783Z,4.71
2023-03-06T13:23:55.215Z,4.70
2023-03-06T13:26:21.555Z,4.70
2023-03-06T13:28:47.946Z,4.71
2023-03-06T13:31:26.552Z,4.70
2023-03-06T13:33:53.473Z,4.70
2023-03-06T13:36:20.150Z,4.67
2023-03-06T13:38:46.624Z,4.70
2023-03-06T13:41:13.233Z,4.70
2023-03-06T13:43:39.565Z,4.72
2023-03-06T13:46:05.936Z,4.68
2023-03-06T13:48:47.690Z,4.71
2023-03-06T13:51:14.063Z,4.71
2023-03-06T13:53:40.428Z,4.68
2023-03-06T13:56:06.783Z,4.68
2023-03-06T13:58:33.123Z,4.68
2023-03-06T14:00:59.452Z,4.70
2023-03-06T14:03:25.781Z,4.70
2023-03-06T14:05:52.384Z,4.70
2023-03-06T14:08:18.733Z,4.71
2023-03-06T14:10:45.109Z,4.70
2023-03-06T14:13:11.465Z,4.70
2023-03-06T14:15:37.874Z,4.72
2023-03-06T14:18:04.264Z,4.68
2023-03-06T14:20:30.608Z,4.70
2023-03-06T14:22:56.952Z,4.68
2023-03-06T14:25:23.285Z,4.67
2023-03-06T14:27:49.629Z,4.71
2023-03-06T14:30:15.967Z,4.67
2023-03-06T14:32:42.623Z,4.71
2023-03-06T14:35:08.971Z,4.71
2023-03-06T14:37:35.309Z,4.71
2023-03-06T14:40:01.694Z,4.72
2023-03-06T14:42:28.030Z,4.68
2023-03-06T14:44:54.375Z,4.70
2023-03-06T14:47:20.711Z,4.70
2023-03-06T14:49:47.051Z,4.67
2023-03-06T14:52:13.381Z,4.70
2023-03-06T14:54:39.719Z,4.71
2023-03-06T14:57:06.076Z,4.70
2023-03-06T14:59:32.424Z,4.71
2023-03-06T15:01:58.824Z,4.70
2023-03-06T15:04:25.210Z,4.71
2023-03-06T15:06:51.616Z,4.70
2023-03-06T15:09:17.992Z,4.70
2023-03-06T15:11:44.328Z,4.71
2023-03-06T15:14:10.669Z,4.71
2023-03-06T15:16:37.057Z,4.71
2023-03-06T15:19:03.549Z,4.70
2023-03-06T15:21:29.916Z,4.70
2023-03-06T15:23:56.249Z,4.68
2023-03-06T15:26:22.625Z,4.68
2023-03-06T15:28:52.189Z,4.70
2023-03-06T15:31:20.686Z,4.68
2023-03-06T15:33:47.049Z,4.71
2023-03-06T15:36:13.380Z,4.70
2023-03-06T15:38:39.716Z,4.67
2023-03-06T15:41:06.056Z,4.71
2023-03-06T15:43:32.387Z,4.68
2023-03-06T15:45:58.774Z,4.71
2023-03-06T15:48:25.140Z,4.70
2023-03-06T15:50:51.772Z,4.71
2023-03-06T15:53:18.139Z,4.70
2023-03-06T15:55:44.486Z,4.71
2023-03-06T15:58:10.835Z,4.70
2023-03-06T16:00:37.163Z,4.70
2023-03-06T16:03:03.496Z,4.70
2023-03-06T16:05:29.864Z,4.71
2023-03-06T16:07:56.233Z,4.71
2023-03-06T16:10:22.567Z,4.72
2023-03-06T16:12:48.897Z,4.68
2023-03-06T16:15:15.465Z,4.67
2023-03-06T16:17:41.790Z,4.70
2023-03-06T16:20:08.117Z,4.68
2023-03-06T16:22:34.458Z,4.71
2023-03-06T16:25:00.797Z,4.71
2023-03-06T16:27:27.150Z,4.70
2023-03-06T16:29:53.475Z,4.70
2023-03-06T16:32:19.858Z,4.71
2023-03-06T16:34:46.229Z,4.71
2023-03-06T16:37:12.575Z,4.71
2023-03-06T16:39:38.921Z,4.71
2023-03-06T16:42:05.512Z,4.70
2023-03-06T16:44:31.845Z,4.71
2023-03-06T16:46:58.184Z,4.70
2023-03-06T16:49:24.566Z,4.70
2023-03-06T16:51:50.948Z,4.70
2023-03-06T16:54:17.291Z,4.70
2023-03-06T16:56:43.638Z,4.70
2023-03-06T16:59:09.969Z,4.71
2023-03-06T17:01:36.381Z,4.68
2023-03-06T17:04:03.011Z,4.72
2023-03-06T17:06:29.340Z,4.71
2023-03-06T17:08:55.842Z,4.70
2023-03-06T17:11:22.179Z,4.71
2023-03-06T17:13:48.524Z,4.70
2023-03-06T17:16:14.897Z,4.71
2023-03-06T17:18:41.241Z,4.71
2023-03-06T17:21:07.795Z,4.72
2023-03-06T17:23:34.127Z,4.70
2023-03-06T17:26:00.691Z,4.68
2023-03-06T17:28:27.023Z,4.71
2023-03-06T17:30:53.390Z,4.68
2023-03-06T17:33:19.723Z,4.70
2023-03-06T17:35:46.060Z,4.71
2023-03-06T17:38:12.400Z,4.74
2023-03-06T17:40:38.731Z,4.75
2023-03-06T17:43:05.072Z,4.74
2023-03-06T17:45:31.408Z,4.75
2023-03-06T17:47:57.802Z,4.74
2023-03-06T17:50:24.140Z,4.72
2023-03-06T17:52:50.487Z,4.74
2023-03-06T17:55:16.833Z,4.75
2023-03-06T17:57:43.175Z,4.74
2023-03-06T18:00:09.747Z,4.74
2023-03-06T18:02:36.082Z,4.72
2023-03-06T18:05:02.542Z,4.75
2023-03-06T18:07:28.912Z,4.72
2023-03-06T18:09:55.236Z,4.70
2023-03-06T18:12:21.559Z,4.72
2023-03-06T18:14:47.885Z,4.72
2023-03-06T18:17:14.429Z,4.71
2023-03-06T18:19:40.757Z,4.72
2023-03-06T18:22:07.081Z,4.71
2023-03-06T18:24:33.421Z,4.72
2023-03-06T18:26:59.753Z,4.74
2023-03-06T18:29:26.331Z,4.72
2023-03-06T18:31:52.711Z,4.72
2023-03-06T18:34:19.080Z,4.74
2023-03-06T18:36:45.412Z,4.72
2023-03-06T18:39:11.740Z,4.72
2023-03-06T18:41:38.074Z,4.71
2023-03-06T18:44:04.400Z,4.70
2023-03-06T18:46:30.973Z,4.72
2023-03-06T18:48:57.295Z,4.74
2023-03-06T18:51:23.627Z,4.74
2023-03-06T18:53:49.972Z,4.72
2023-03-06T18:56:16.332Z,4.72
2023-03-06T18:58:42.704Z,4.72
2023-03-06T19:01:09.088Z,4.74
2023-03-06T19:03:36.974Z,4.72
2023-03-06T19:06:03.296Z,4.74
2023-03-06T19:08:29.624Z,4.71
2023-03-06T19:10:55.966Z,4.71
2023-03-06T19:13:22.306Z,4.70
2023-03-06T19:15:48.638Z,4.71
2023-03-06T19:18:14.964Z,4.71
2023-03-06T19:20:41.297Z,4.72
2023-03-06T19:23:07.666Z,4.72
2023-03-06T19:25:34.017Z,4.72
2023-03-06T19:28:00.354Z,4.72
2023-03-06T19:30:26.708Z,4.71
2023-03-06T19:32:53.104Z,4.70
2023-03-06T19:35:19.489Z,4.71
2023-03-06T19:37:45.867Z,4.71
2023-03-06T19:40:12.222Z,4.71
2023-03-06T19:42:38.561Z,4.70
2023-03-06T19:45:06.151Z,4.71
2023-03-06T19:47:32.500Z,4.71
2023-03-06T19:49:58.844Z,4.72
2023-03-06T19:52:25.180Z,4.71
2023-03-06T19:54:51.521Z,4.71
2023-03-06T19:57:17.847Z,4.72
2023-03-06T19:59:44.397Z,4.71
2023-03-06T20:02:10.974Z,4.74
2023-03-06T20:04:37.568Z,4.68
2023-03-06T20:07:03.933Z,4.71
2023-03-06T20:09:30.510Z,4.72
2023-03-06T20:11:56.837Z,4.74
2023-03-06T20:14:23.389Z,4.67
2023-03-06T20:16:50.350Z,4.71
2023-03-06T20:19:16.916Z,4.70
2023-03-06T20:21:43.493Z,4.70
2023-03-06T20:24:09.840Z,4.71
2023-03-06T20:26:36.189Z,4.70
2023-03-06T20:29:02.750Z,4.71
2023-03-06T20:31:29.169Z,4.71
2023-03-06T20:33:55.640Z,4.70
2023-03-06T20:36:21.986Z,4.71
2023-03-06T20:38:48.327Z,4.71
2023-03-06T20:41:14.667Z,4.70
2023-03-06T20:43:41.813Z,4.72
2023-03-06T20:46:08.185Z,4.72
2023-03-06T20:48:34.547Z,4.71
2023-03-06T20:51:00.890Z,4.71
2023-03-06T20:53:27.228Z,4.71
2023-03-06T20:55:53.570Z,4.71
2023-03-06T20:58:19.919Z,4.71
2023-03-06T21:00:46.272Z,4.71
2023-03-06T21:03:12.602Z,4.70
2023-03-06T21:05:38.938Z,4.68
2023-03-06T21:08:05.278Z,4.71
2023-03-06T21:10:31.609Z,4.70
2023-03-06T21:12:57.937Z,4.70
2023-03-06T21:15:24.227Z,4.70
2023-03-06T21:17:50.583Z,4.70
2023-03-06T21:20:16.912Z,4.71
2023-03-06T21:22:43.248Z,4.70
2023-03-06T21:25:09.594Z,4.70
2023-03-06T21:27:35.932Z,4.71
2023-03-06T21:30:02.262Z,4.74
2023-03-06T21:32:28.631Z,4.70
2023-03-06T21:34:55.002Z,4.74
2023-03-06T21:37:21.331Z,4.71
2023-03-06T21:39:47.875Z,4.71
2023-03-06T21:42:14.208Z,4.70
2023-03-06T21:44:40.536Z,4.70
2023-03-06T21:47:06.865Z,4.68
2023-03-06T21:49:33.201Z,4.71
2023-03-06T21:51:59.539Z,4.68
2023-03-06T21:54:26.094Z,4.71
2023-03-06T21:56:52.459Z,4.70
2023-03-06T21:59:18.827Z,4.70
2023-03-06T22:01:45.160Z,4.72
2023-03-06T22:04:11.520Z,4.70
2023-03-06T22:06:37.879Z,4.72
2023-03-06T22:09:04.214Z,4.71
2023-03-06T22:11:30.884Z,4.68
2023-03-06T22:13:57.221Z,4.70
2023-03-06T22:16:23.858Z,4.70
2023-03-06T22:18:50.275Z,4.70
2023-03-06T22:21:16.608Z,4.71
2023-03-06T22:23:42.943Z,4.71
2023-03-06T22:26:09.285Z,4.70
2023-03-06T22:28:35.621Z,4.68
2023-03-06T22:31:01.956Z,4.68
2023-03-06T22:33:28.278Z,4.70
2023-03-06T22:35:54.611Z,4.70
2023-03-06T22:38:20.961Z,4.68
2023-03-06T22:40:47.292Z,4.70
2023-03-06T22:43:13.645Z,4.71
2023-03-06T22:45:40.254Z,4.70
2023-03-06T22:48:11.191Z,4.67
2023-03-06T22:50:37.680Z,4.67
2023-03-06T22:53:04.049Z,4.68
2023-03-06T22:55:30.377Z,4.70
2023-03-06T22:57:56.699Z,4.68
2023-03-06T23:00:24.317Z,4.70
2023-03-06T23:02:50.651Z,4.68
2023-03-06T23:05:17.220Z,4.70
2023-03-06T23:07:43.785Z,4.68
2023-03-06T23:10:10.234Z,4.68
2023-03-06T23:12:36.610Z,4.70
2023-03-06T23:15:02.957Z,4.67
2023-03-06T23:17:29.505Z,4.68
2023-03-06T23:19:55.847Z,4.68
2023-03-06T23:22:22.392Z,4.70
2023-03-06T23:24:48.736Z,4.68
2023-03-06T23:27:15.292Z,4.67
2023-03-06T23:29:41.617Z,4.70
2023-03-06T23:32:07.991Z,4.70
2023-03-06T23:34:34.563Z,4.68
2023-03-06T23:37:01.108Z,4.70
2023-03-06T23:39:27.653Z,4.67
2023-03-06T23:41:53.996Z,4.70
2023-03-06T23:44:20.333Z,4.70
2023-03-06T23:46:46.670Z,4.70
2023-03-06T23:49:13.035Z,4.68
2023-03-06T23:51:39.370Z,4.67
2023-03-06T23:54:05.738Z,4.67
2023-03-06T23:56:32.110Z,4.68
2023-03-06T23:58:58.660Z,4.70
